Time;durP1;ratioP1;P1;durP2;ratioP2;P2;SDS_P1;SDS_P2;PMS_P1;PMS_P2;Temp;Humidity;BMP_temperature;BMP_pressure;BME280_temperature;BME280_humidity;BME280_pressure;Samples;Min_cycle;Max_cycle;Signal;HPM_P1;HPM_P2
2022/06/17 00:01:52;;;;;;;3.70;2.73;;;21.50;50.90;;;;;;5054043;28;20493;-48
2022/06/17 00:04:20;;;;;;;3.40;2.53;;;21.50;51.00;;;;;;5059197;28;20492;-48
2022/06/17 00:06:50;;;;;;;3.77;2.47;;;21.40;51.00;;;;;;5024539;28;20488;-48
2022/06/17 00:09:19;;;;;;;2.70;2.47;;;21.40;51.10;;;;;;5056681;28;20469;-48
2022/06/17 00:11:46;;;;;;;3.10;2.70;;;21.30;51.20;;;;;;5043264;28;20449;-47
2022/06/17 00:14:26;;;;;;;3.43;2.60;;;21.30;51.30;;;;;;5060579;28;20651;-48
2022/06/17 00:16:53;;;;;;;3.13;2.83;;;21.20;51.40;;;;;;5059840;28;20465;-48
2022/06/17 00:19:20;;;;;;;3.10;2.50;;;21.20;51.60;;;;;;5063417;28;20490;-47
2022/06/17 00:21:50;;;;;;;2.70;2.50;;;21.20;51.60;;;;;;5049180;28;20464;-47
2022/06/17 00:24:23;;;;;;;2.80;2.50;;;21.10;51.70;;;;;;5058392;28;20454;-46
2022/06/17 00:26:51;;;;;;;3.20;2.37;;;21.10;51.80;;;;;;5059533;28;21198;-48
2022/06/17 00:29:21;;;;;;;6.13;2.50;;;21.10;51.90;;;;;;5044023;28;20544;-48
2022/06/17 00:31:48;;;;;;;3.60;2.50;;;21.00;52.00;;;;;;5054918;28;20461;-48
2022/06/17 00:34:15;;;;;;;3.03;1.97;;;21.00;52.10;;;;;;5065147;28;20453;-48
2022/06/17 00:36:42;;;;;;;2.80;2.60;;;20.90;52.20;;;;;;5061251;28;20492;-47
2022/06/17 00:39:18;;;;;;;3.70;2.97;;;20.90;52.40;;;;;;5061841;28;20470;-48
2022/06/17 00:41:48;;;;;;;2.17;2.03;;;20.90;52.40;;;;;;5059814;28;20469;-47
2022/06/17 00:44:49;;;;;;;5.83;2.80;;;20.90;52.90;;;;;;5046565;28;20494;-46
2022/06/17 00:47:28;;;;;;;2.10;2.00;;;20.90;53.00;;;;;;5059263;28;21042;-46
2022/06/17 00:50:02;;;;;;;3.20;2.00;;;20.80;52.90;;;;;;5053596;28;20465;-46
2022/06/17 00:52:36;;;;;;;4.83;2.50;;;20.80;52.80;;;;;;5061014;28;20479;-46
2022/06/17 00:55:25;;;;;;;4.37;3.30;;;20.70;53.00;;;;;;5045609;28;20469;-46
2022/06/17 00:57:52;;;;;;;2.60;2.40;;;20.70;53.10;;;;;;5060043;28;21024;-46
2022/06/17 01:00:23;;;;;;;2.27;2.07;;;20.60;53.20;;;;;;5065544;28;21003;-46
2022/06/17 01:02:54;;;;;;;2.50;2.30;;;20.50;53.40;;;;;;5041668;28;20457;-47
2022/06/17 01:05:28;;;;;;;2.63;2.43;;;20.40;53.70;;;;;;5049259;28;20555;-46
2022/06/17 01:08:12;;;;;;;2.70;2.20;;;20.40;53.90;;;;;;5046729;28;21043;-46
2022/06/17 01:10:47;;;;;;;8.93;2.40;;;20.30;54.10;;;;;;5062979;28;20502;-46
2022/06/17 01:13:14;;;;;;;2.37;2.17;;;20.30;54.20;;;;;;5056247;28;20468;-47
2022/06/17 01:15:42;;;;;;;2.93;2.13;;;20.20;54.30;;;;;;5059741;28;20453;-46
2022/06/17 01:18:12;;;;;;;2.73;2.40;;;20.20;54.50;;;;;;5046739;28;20970;-46
2022/06/17 01:20:42;;;;;;;3.67;2.20;;;20.10;54.50;;;;;;5046057;28;20553;-46
2022/06/17 01:23:13;;;;;;;2.50;2.30;;;20.10;55.00;;;;;;5060483;28;20585;-46
2022/06/17 01:25:44;;;;;;;2.43;2.20;;;20.10;54.80;;;;;;5047264;28;20912;-46
2022/06/17 01:28:16;;;;;;;2.53;1.93;;;20.00;55.10;;;;;;5044843;28;20468;-46
2022/06/17 01:30:58;;;;;;;3.73;2.50;;;19.90;55.20;;;;;;5043736;28;20690;-46
2022/06/17 01:33:37;;;;;;;2.80;2.60;;;19.80;55.30;;;;;;5046362;28;20809;-46
2022/06/17 01:36:23;;;;;;;2.40;2.20;;;19.80;55.50;;;;;;5059487;28;20458;-47
2022/06/17 01:38:53;;;;;;;2.40;2.30;;;19.70;55.60;;;;;;5054761;28;20470;-46
2022/06/17 01:41:25;;;;;;;3.17;2.67;;;19.70;55.50;;;;;;5041443;28;21870;-47
2022/06/17 01:44:17;;;;;;;4.40;2.60;;;19.60;55.40;;;;;;5046016;28;20485;-47
2022/06/17 01:46:47;;;;;;;2.47;2.27;;;19.50;55.90;;;;;;5062144;28;20504;-46
2022/06/17 01:49:20;;;;;;;4.87;3.13;;;19.40;56.30;;;;;;5061414;28;21199;-46
2022/06/17 01:52:17;;;;;;;2.60;2.40;;;19.30;56.40;;;;;;5054971;28;20469;-46
2022/06/17 01:54:50;;;;;;;2.57;2.17;;;19.30;57.00;;;;;;5041471;28;20465;-47
2022/06/17 01:57:23;;;;;;;2.60;2.40;;;19.20;57.20;;;;;;5057308;28;20592;-47
2022/06/17 01:59:55;;;;;;;4.03;2.57;;;19.10;57.40;;;;;;5053440;28;20616;-46
2022/06/17 02:02:23;;;;;;;2.73;2.40;;;19.10;57.50;;;;;;5055690;28;20487;-47
2022/06/17 02:04:57;;;;;;;3.43;2.40;;;19.10;57.80;;;;;;5059405;28;20469;-46
2022/06/17 02:07:45;;;;;;;4.20;2.33;;;19.00;57.80;;;;;;5057291;28;20481;-47
2022/06/17 02:10:12;;;;;;;2.83;2.63;;;19.00;57.90;;;;;;5061048;28;20460;-46
2022/06/17 02:12:40;;;;;;;3.20;2.90;;;19.00;58.20;;;;;;5066581;28;20996;-47
2022/06/17 02:15:08;;;;;;;3.33;2.50;;;19.00;57.90;;;;;;5058866;28;20462;-47
2022/06/17 02:17:41;;;;;;;2.97;2.77;;;18.90;57.60;;;;;;5026596;28;20479;-47
2022/06/17 02:20:09;;;;;;;2.80;2.60;;;18.90;57.90;;;;;;5058507;28;20458;-47
2022/06/17 02:22:37;;;;;;;3.30;3.00;;;18.90;58.10;;;;;;5042941;28;20855;-47
2022/06/17 02:25:11;;;;;;;2.83;2.63;;;18.80;58.20;;;;;;5059827;28;20978;-46
2022/06/17 02:27:40;;;;;;;2.73;2.27;;;18.80;58.30;;;;;;5059606;28;20556;-47
2022/06/17 02:30:08;;;;;;;3.03;2.73;;;18.80;58.50;;;;;;5056250;28;20459;-47
2022/06/17 02:32:53;;;;;;;5.20;2.97;;;18.80;58.50;;;;;;5055732;28;20776;-46
2022/06/17 02:35:32;;;;;;;2.13;2.00;;;18.70;58.70;;;;;;5057802;28;20849;-46
2022/06/17 02:37:59;;;;;;;4.90;2.87;;;18.70;58.90;;;;;;5060000;28;20829;-46
2022/06/17 02:40:36;;;;;;;3.13;2.83;;;18.60;59.40;;;;;;5054634;28;20468;-46
2022/06/17 02:43:12;;;;;;;3.37;3.00;;;18.60;59.20;;;;;;5044567;28;20453;-47
2022/06/17 02:45:46;;;;;;;2.87;2.67;;;18.60;59.40;;;;;;5058587;28;20489;-47
2022/06/17 02:48:31;;;;;;;2.80;2.60;;;18.60;59.40;;;;;;5058358;28;21022;-46
2022/06/17 02:51:00;;;;;;;5.73;2.63;;;18.60;59.60;;;;;;5057239;28;20849;-47
2022/06/17 02:53:37;;;;;;;3.40;3.10;;;18.50;59.60;;;;;;5058555;28;20493;-47
2022/06/17 02:56:08;;;;;;;2.90;2.60;;;18.50;59.70;;;;;;5046114;28;20582;-46
2022/06/17 02:58:42;;;;;;;4.90;2.53;;;18.50;59.90;;;;;;5040492;28;20453;-47
2022/06/17 03:01:17;;;;;;;5.30;3.33;;;18.40;59.90;;;;;;5057073;28;20601;-46
2022/06/17 03:03:46;;;;;;;2.70;2.33;;;18.40;59.90;;;;;;5056680;28;20560;-46
2022/06/17 03:06:30;;;;;;;7.37;3.30;;;18.40;59.80;;;;;;5039535;28;20490;-47
2022/06/17 03:09:00;;;;;;;2.50;2.30;;;18.30;59.90;;;;;;5027512;28;20461;-46
2022/06/17 03:11:27;;;;;;;3.80;2.90;;;18.30;60.00;;;;;;5059330;28;21162;-47
2022/06/17 03:13:59;;;;;;;3.67;3.37;;;18.30;60.40;;;;;;5047879;28;20441;-47
2022/06/17 03:16:26;;;;;;;4.03;3.13;;;18.30;60.10;;;;;;5059426;28;20476;-47
2022/06/17 03:18:55;;;;;;;3.57;2.53;;;18.30;60.10;;;;;;5038277;28;20461;-47
2022/06/17 03:21:24;;;;;;;3.00;2.80;;;18.20;60.10;;;;;;5058894;28;20465;-46
2022/06/17 03:23:59;;;;;;;2.73;2.53;;;18.20;60.70;;;;;;5063248;28;20974;-46
2022/06/17 03:26:37;;;;;;;3.23;2.93;;;18.10;60.70;;;;;;5058317;28;20965;-46
2022/06/17 03:29:08;;;;;;;3.23;2.93;;;18.10;60.90;;;;;;5059899;28;21061;-46
2022/06/17 03:31:43;;;;;;;3.30;2.73;;;18.00;61.20;;;;;;5044991;28;21032;-46
2022/06/17 03:34:21;;;;;;;6.53;3.07;;;18.00;61.30;;;;;;5056112;28;20456;-46
2022/06/17 03:36:59;;;;;;;4.70;3.00;;;17.90;61.70;;;;;;5039184;28;20516;-46
2022/06/17 03:39:46;;;;;;;4.73;3.90;;;17.90;61.60;;;;;;5051733;28;20985;-46
2022/06/17 03:42:28;;;;;;;3.10;2.90;;;17.90;62.10;;;;;;5039811;28;20465;-46
2022/06/17 03:45:09;;;;;;;3.50;3.20;;;17.90;62.30;;;;;;5058204;28;20464;-47
2022/06/17 03:48:05;;;;;;;4.10;2.63;;;17.80;62.20;;;;;;5043125;28;20524;-46
2022/06/17 03:50:35;;;;;;;3.10;2.80;;;17.80;62.50;;;;;;5055296;28;20470;-46
2022/06/17 03:53:06;;;;;;;2.60;2.40;;;17.80;62.50;;;;;;5059512;28;20548;-47
2022/06/17 03:55:33;;;;;;;5.10;3.20;;;17.80;62.60;;;;;;5044057;28;20458;-47
2022/06/17 03:58:01;;;;;;;3.40;2.70;;;17.80;62.60;;;;;;5042927;28;20461;-47
2022/06/17 04:00:59;;;;;;;4.97;3.13;;;17.80;62.60;;;;;;5059533;28;21020;-47
2022/06/17 04:03:32;;;;;;;4.83;2.83;;;17.80;62.60;;;;;;5061519;28;20547;-47
2022/06/17 04:06:07;;;;;;;3.63;3.27;;;17.80;62.70;;;;;;5060573;28;20490;-46
2022/06/17 04:08:48;;;;;;;2.87;2.67;;;17.80;62.80;;;;;;5061880;28;20519;-47
2022/06/17 04:11:16;;;;;;;3.70;3.00;;;17.80;62.80;;;;;;5065336;28;20453;-47
2022/06/17 04:13:43;;;;;;;3.07;2.77;;;17.80;62.90;;;;;;5058581;28;20457;-47
2022/06/17 04:16:19;;;;;;;4.80;3.20;;;17.80;63.00;;;;;;5047926;28;20472;-47
2022/06/17 04:18:45;;;;;;;3.20;2.87;;;17.90;63.10;;;;;;5040508;28;20845;-46
2022/06/17 04:21:13;;;;;;;3.07;2.87;;;17.90;63.10;;;;;;5051665;28;20475;-47
2022/06/17 04:23:41;;;;;;;3.40;3.10;;;17.90;63.20;;;;;;5048294;28;20473;-47
2022/06/17 04:26:21;;;;;;;5.73;2.70;;;17.90;63.20;;;;;;5062429;28;20497;-46
2022/06/17 04:28:56;;;;;;;3.57;3.27;;;17.90;63.40;;;;;;5057386;28;20464;-46
2022/06/17 04:31:26;;;;;;;5.63;3.00;;;17.90;63.40;;;;;;5061619;28;20962;-46
2022/06/17 04:34:15;;;;;;;3.80;3.00;;;18.00;63.40;;;;;;5042206;28;21027;-47
2022/06/17 04:36:59;;;;;;;3.13;2.70;;;18.00;63.30;;;;;;5062259;28;20471;-46
2022/06/17 04:39:32;;;;;;;3.77;3.20;;;18.00;63.40;;;;;;5051052;28;20467;-47
2022/06/17 04:42:03;;;;;;;3.87;3.07;;;18.00;63.40;;;;;;5060696;28;20457;-47
2022/06/17 04:44:30;;;;;;;3.07;2.77;;;18.10;63.40;;;;;;5063376;28;20457;-46
2022/06/17 04:47:19;;;;;;;4.10;3.13;;;18.10;63.20;;;;;;5057085;28;20493;-46
2022/06/17 04:50:03;;;;;;;3.57;3.27;;;18.10;63.30;;;;;;5044985;28;20465;-47
2022/06/17 04:52:36;;;;;;;4.93;3.27;;;18.20;63.30;;;;;;5061047;28;20495;-46
2022/06/17 04:55:06;;;;;;;5.03;3.40;;;18.20;63.30;;;;;;5059704;28;20457;-47
2022/06/17 04:57:34;;;;;;;3.17;2.80;;;18.20;63.20;;;;;;5045672;28;20885;-46
2022/06/17 05:00:01;;;;;;;3.83;3.27;;;18.30;63.30;;;;;;5056602;28;20565;-47
2022/06/17 05:02:30;;;;;;;4.40;2.83;;;18.40;63.30;;;;;;5040005;28;20457;-47
2022/06/17 05:05:00;;;;;;;3.13;2.60;;;18.50;63.10;;;;;;5046311;28;20465;-47
2022/06/17 05:07:32;;;;;;;6.30;2.80;;;18.50;63.00;;;;;;5062772;28;20705;-46
2022/06/17 05:10:25;;;;;;;5.10;2.90;;;18.50;63.00;;;;;;5060529;28;20453;-46
2022/06/17 05:13:07;;;;;;;3.03;2.70;;;18.60;63.20;;;;;;5039845;28;20465;-47
2022/06/17 05:15:35;;;;;;;3.10;2.30;;;18.60;63.40;;;;;;5057337;28;20465;-47
2022/06/17 05:18:02;;;;;;;3.90;2.60;;;18.70;63.40;;;;;;5063057;28;20474;-47
2022/06/17 05:20:29;;;;;;;3.20;2.70;;;18.70;63.20;;;;;;5031607;28;20541;-46
2022/06/17 05:23:02;;;;;;;3.00;2.70;;;18.80;63.10;;;;;;5063977;28;20446;-47
2022/06/17 05:25:32;;;;;;;4.43;2.87;;;18.80;62.90;;;;;;5057511;28;20471;-46
2022/06/17 05:27:59;;;;;;;4.20;2.70;;;18.90;63.00;;;;;;5060488;28;20500;-47
2022/06/17 05:30:31;;;;;;;4.30;2.80;;;19.00;62.80;;;;;;5043829;28;20465;-46
2022/06/17 05:32:58;;;;;;;3.63;2.87;;;19.10;62.50;;;;;;5055959;28;20847;-46
2022/06/17 05:35:26;;;;;;;5.40;2.70;;;19.20;61.50;;;;;;5055057;28;20446;-46
2022/06/17 05:37:53;;;;;;;3.63;3.00;;;19.20;61.90;;;;;;5056083;28;20492;-46
2022/06/17 05:40:20;;;;;;;4.27;2.90;;;19.20;61.70;;;;;;5061796;28;20844;-47
2022/06/17 05:42:49;;;;;;;4.30;2.97;;;19.30;61.80;;;;;;5054769;28;20958;-47
2022/06/17 05:45:28;;;;;;;4.83;3.30;;;19.30;61.20;;;;;;5054232;28;20476;-47
2022/06/17 05:47:55;;;;;;;5.57;2.90;;;19.30;61.10;;;;;;5056405;28;20850;-46
2022/06/17 05:50:24;;;;;;;3.67;2.67;;;19.40;61.50;;;;;;5044208;28;21003;-47
2022/06/17 05:53:04;;;;;;;4.73;2.70;;;19.40;61.30;;;;;;5051586;28;20978;-46
2022/06/17 05:55:33;;;;;;;3.67;2.90;;;19.50;61.20;;;;;;5056463;28;20457;-46
2022/06/17 05:58:00;;;;;;;4.47;2.73;;;19.60;61.50;;;;;;5060232;28;20468;-46
2022/06/17 06:00:28;;;;;;;3.33;2.33;;;19.60;61.10;;;;;;5043649;28;20568;-46
2022/06/17 06:03:04;;;;;;;4.20;2.60;;;19.60;61.30;;;;;;5058090;28;22079;-47
2022/06/17 06:05:33;;;;;;;4.57;2.70;;;19.70;61.30;;;;;;5058539;28;20616;-46
2022/06/17 06:08:00;;;;;;;3.87;2.80;;;19.70;61.10;;;;;;5051190;28;20581;-46
2022/06/17 06:10:33;;;;;;;4.97;3.03;;;19.90;60.90;;;;;;5061344;28;20528;-46
2022/06/17 06:13:05;;;;;;;2.53;2.27;;;20.00;60.30;;;;;;5054863;28;20480;-46
2022/06/17 06:15:43;;;;;;;6.50;2.87;;;20.10;59.50;;;;;;5055885;28;21617;-46
2022/06/17 06:18:13;;;;;;;3.20;2.43;;;20.20;58.50;;;;;;5061652;28;21025;-46
2022/06/17 06:20:40;;;;;;;4.50;2.73;;;20.30;58.00;;;;;;5055017;28;20489;-46
2022/06/17 06:23:07;;;;;;;6.60;2.97;;;20.30;57.00;;;;;;5058055;28;20466;-46
2022/06/17 06:25:34;;;;;;;3.30;2.80;;;20.50;57.00;;;;;;5060851;28;20608;-47
2022/06/17 06:28:19;;;;;;;3.67;2.67;;;20.50;56.60;;;;;;5057687;28;20857;-46
2022/06/17 06:30:56;;;;;;;5.53;3.37;;;20.50;56.60;;;;;;5055530;28;21285;-47
2022/06/17 06:33:23;;;;;;;3.30;2.60;;;20.70;56.40;;;;;;5045049;28;20450;-47
2022/06/17 06:35:50;;;;;;;3.40;2.50;;;20.80;55.30;;;;;;5061589;28;20457;-47
2022/06/17 06:38:17;;;;;;;3.80;2.57;;;20.90;54.70;;;;;;5043695;28;20468;-47
2022/06/17 06:40:44;;;;;;;8.73;3.23;;;21.00;55.10;;;;;;5047406;28;20477;-47
2022/06/17 06:43:13;;;;;;;3.10;2.73;;;21.10;55.30;;;;;;5055830;28;20846;-48
2022/06/17 06:45:40;;;;;;;4.90;2.20;;;21.20;55.40;;;;;;5045027;28;20472;-48
2022/06/17 06:48:09;;;;;;;4.67;2.83;;;21.30;54.20;;;;;;5058752;28;20493;-48
2022/06/17 06:50:36;;;;;;;4.80;2.60;;;21.40;53.20;;;;;;5053117;28;20458;-48
2022/06/17 06:53:04;;;;;;;3.30;2.67;;;21.60;52.90;;;;;;5044430;28;20453;-48
2022/06/17 06:55:34;;;;;;;3.63;2.07;;;21.70;52.90;;;;;;5036385;28;20881;-48
2022/06/17 06:58:03;;;;;;;8.33;2.50;;;21.80;53.00;;;;;;5045701;28;20553;-48
2022/06/17 07:00:42;;;;;;;9.60;3.13;;;21.90;53.10;;;;;;5038097;28;20481;-48
2022/06/17 07:03:10;;;;;;;4.40;2.87;;;22.00;51.80;;;;;;5049783;28;20984;-48
2022/06/17 07:05:41;;;;;;;3.93;2.13;;;22.00;51.50;;;;;;5052498;28;20849;-49
2022/06/17 07:08:10;;;;;;;3.13;2.80;;;22.10;51.80;;;;;;5050915;28;20873;-48
2022/06/17 07:10:38;;;;;;;6.20;2.37;;;22.30;52.10;;;;;;5057855;28;20454;-47
2022/06/17 07:13:06;;;;;;;4.60;2.73;;;22.40;51.70;;;;;;5060383;28;20453;-47
2022/06/17 07:15:34;;;;;;;9.07;2.73;;;22.50;51.50;;;;;;5054492;28;20462;-47
2022/06/17 07:18:17;;;;;;;5.83;2.53;;;22.70;50.50;;;;;;5063121;28;20467;-46
2022/06/17 07:20:46;;;;;;;3.43;2.37;;;22.70;50.00;;;;;;5058343;28;20457;-46
2022/06/17 07:23:18;;;;;;;2.70;2.17;;;22.90;49.50;;;;;;5064991;28;20465;-47
2022/06/17 07:25:46;;;;;;;7.50;2.50;;;23.00;49.40;;;;;;5067136;28;20544;-46
2022/06/17 07:28:21;;;;;;;9.70;2.47;;;23.10;49.60;;;;;;5045362;28;20513;-46
2022/06/17 07:30:50;;;;;;;4.37;2.10;;;23.30;49.60;;;;;;5049969;28;20534;-49
2022/06/17 07:33:18;;;;;;;5.73;2.00;;;23.50;49.40;;;;;;5057376;28;20456;-47
2022/06/17 07:35:47;;;;;;;5.70;2.43;;;23.50;48.20;;;;;;5064615;28;20478;-46
2022/06/17 07:41:07;;;;;;;3.07;2.00;;;23.70;48.50;;;;;;5068324;28;20470;-47
2022/06/17 07:43:34;;;;;;;3.13;2.13;;;23.90;48.30;;;;;;5065315;28;20524;-46
2022/06/17 07:46:03;;;;;;;2.17;1.93;;;24.00;47.10;;;;;;5064383;28;20902;-46
2022/06/17 07:48:29;;;;;;;3.63;1.80;;;24.20;46.90;;;;;;5068247;28;21011;-46
2022/06/17 07:50:59;;;;;;;4.50;2.37;;;24.30;46.80;;;;;;5065899;28;20491;-47
2022/06/17 07:53:29;;;;;;;5.00;2.07;;;24.50;47.30;;;;;;5069293;28;20444;-48
2022/06/17 07:55:58;;;;;;;3.10;2.20;;;24.70;46.70;;;;;;5049342;28;20449;-47
2022/06/17 07:58:26;;;;;;;4.43;2.37;;;24.80;46.10;;;;;;5064006;28;20436;-47
2022/06/17 08:00:54;;;;;;;3.10;1.77;;;24.90;44.50;;;;;;5052518;28;20540;-47
2022/06/17 08:03:21;;;;;;;3.93;1.73;;;24.90;44.20;;;;;;5049969;28;20469;-48
2022/06/17 08:05:56;;;;;;;4.10;1.77;;;25.00;44.50;;;;;;5066194;28;20539;-47
2022/06/17 08:08:24;;;;;;;4.47;2.00;;;25.20;44.30;;;;;;5049018;28;20487;-46
2022/06/17 08:10:57;;;;;;;3.57;1.80;;;25.30;44.00;;;;;;5042909;28;20456;-48
2022/06/17 08:13:24;;;;;;;3.97;1.60;;;25.30;43.50;;;;;;5059587;28;20636;-48
2022/06/17 08:15:54;;;;;;;2.17;1.53;;;25.40;43.40;;;;;;5043741;28;20465;-48
2022/06/17 08:18:21;;;;;;;1.97;1.77;;;25.30;43.00;;;;;;5042610;28;20964;-48
2022/06/17 08:20:48;;;;;;;4.33;2.20;;;25.20;43.50;;;;;;5059023;28;20872;-48
2022/06/17 08:23:16;;;;;;;3.50;1.80;;;25.20;43.60;;;;;;5048230;28;20551;-46
2022/06/17 08:25:43;;;;;;;3.57;1.83;;;25.10;43.30;;;;;;5055626;28;20588;-47
2022/06/17 08:28:12;;;;;;;5.10;2.37;;;25.20;43.60;;;;;;5048148;28;20508;-49
2022/06/17 08:30:46;;;;;;;3.43;1.77;;;25.20;43.00;;;;;;5060377;28;20550;-49
2022/06/17 08:33:14;;;;;;;3.47;2.00;;;25.30;43.00;;;;;;5062865;28;20528;-49
2022/06/17 08:36:06;;;;;;;4.43;1.90;;;25.50;42.90;;;;;;5047877;28;20430;-49
2022/06/17 08:38:36;;;;;;;2.20;2.00;;;25.70;43.20;;;;;;5064283;28;20790;-46
2022/06/17 08:41:27;;;;;;;6.03;2.63;;;25.90;43.10;;;;;;5048944;28;20440;-49
2022/06/17 08:44:35;;;;;;;5.03;1.80;;;26.20;42.70;;;;;;5065092;28;20528;-49
2022/06/17 08:47:15;;;;;;;8.73;2.07;;;26.50;42.20;;;;;;5058241;28;20578;-49
2022/06/17 08:49:56;;;;;;;4.50;2.60;;;26.70;41.30;;;;;;5059952;28;20456;-49
2022/06/17 08:52:32;;;;;;;2.37;1.70;;;26.90;40.90;;;;;;5046813;28;20460;-49
2022/06/17 08:55:37;;;;;;;3.63;2.27;;;26.90;40.50;;;;;;5049855;28;20453;-49
2022/06/17 08:58:29;;;;;;;2.57;2.20;;;27.10;40.60;;;;;;5059847;28;20677;-49
2022/06/17 09:01:01;;;;;;;3.80;1.83;;;27.30;40.20;;;;;;5043724;28;20796;-49
2022/06/17 09:03:37;;;;;;;2.80;1.83;;;27.50;39.50;;;;;;5043684;28;20584;-49
2022/06/17 09:06:23;;;;;;;4.03;1.60;;;27.70;39.50;;;;;;5059598;28;20463;-49
2022/06/17 09:09:09;;;;;;;2.40;1.67;;;28.00;38.90;;;;;;5062979;28;21021;-48
2022/06/17 09:11:47;;;;;;;2.70;2.27;;;28.10;37.80;;;;;;5064735;28;20466;-48
2022/06/17 09:14:14;;;;;;;3.00;1.53;;;28.10;37.60;;;;;;5043232;28;20838;-48
2022/06/17 09:16:59;;;;;;;3.80;2.20;;;28.30;37.40;;;;;;5044179;28;20206;-47
2022/06/17 09:19:30;;;;;;;2.37;1.70;;;28.40;37.40;;;;;;5055476;28;20538;-47
2022/06/17 09:22:10;;;;;;;4.13;1.70;;;28.60;37.60;;;;;;5062927;28;20203;-46
2022/06/17 09:24:43;;;;;;;6.40;1.70;;;28.80;37.10;;;;;;5063646;28;20213;-46
2022/06/17 09:27:31;;;;;;;7.53;2.20;;;28.90;37.20;;;;;;5048152;28;20218;-46
2022/06/17 09:30:08;;;;;;;4.27;1.53;;;29.00;37.00;;;;;;5062808;28;20217;-47
2022/06/17 09:32:53;;;;;;;2.57;1.90;;;29.00;36.40;;;;;;5068130;28;20230;-47
2022/06/17 09:35:46;;;;;;;2.70;1.67;;;29.10;36.40;;;;;;5066069;28;20202;-47
2022/06/17 09:38:20;;;;;;;4.30;1.37;;;29.30;36.30;;;;;;5067926;28;20206;-47
2022/06/17 09:41:13;;;;;;;2.13;1.80;;;29.40;36.00;;;;;;5064756;28;20220;-47
2022/06/17 09:44:03;;;;;;;3.00;1.60;;;29.70;36.10;;;;;;5070895;28;20202;-47
2022/06/17 09:46:53;;;;;;;3.17;1.60;;;29.80;35.40;;;;;;5065135;28;20652;-47
2022/06/17 09:49:47;;;;;;;2.35;1.85;;;30.00;35.10;;;;;;5053978;28;20262;-47
2022/06/17 09:52:17;;;;;;;1.75;1.48;;;30.10;34.40;;;;;;5050612;28;20222;-47
2022/06/17 09:54:52;;;;;;;2.40;1.60;;;30.30;34.70;;;;;;5060490;28;20206;-47
2022/06/17 09:57:32;;;;;;;1.55;1.40;;;30.50;33.90;;;;;;5058005;28;20237;-47
2022/06/17 10:00:07;;;;;;;1.73;1.55;;;30.60;34.20;;;;;;5073416;28;20227;-47
2022/06/17 10:02:42;;;;;;;1.90;1.70;;;30.70;34.30;;;;;;5033360;28;20209;-47
2022/06/17 10:05:56;;;;;;;2.15;1.40;;;30.90;34.20;;;;;;5053406;28;20955;-47
2022/06/17 10:08:32;;;;;;;2.13;1.92;;;31.10;33.40;;;;;;5059290;28;20265;-47
2022/06/17 10:11:29;;;;;;;2.47;1.92;;;31.40;33.20;;;;;;5068939;28;20207;-47
2022/06/17 10:14:23;;;;;;;1.55;1.45;;;31.60;32.70;;;;;;5065113;28;20365;-47
2022/06/17 10:19:58;;;;;;;1.33;1.23;;;31.70;32.40;;;;;;5067363;28;20302;-47
2022/06/17 10:23:00;;;;;;;1.73;1.63;;;31.70;31.70;;;;;;5073221;28;20227;-46
2022/06/17 10:25:56;;;;;;;2.17;1.23;;;31.80;31.70;;;;;;5063292;28;20213;-46
2022/06/17 10:28:41;;;;;;;1.80;1.52;;;32.00;31.70;;;;;;5038443;28;20218;-47
2022/06/17 10:31:37;;;;;;;2.25;1.40;;;32.00;31.80;;;;;;5069726;28;20199;-46
2022/06/17 10:34:29;;;;;;;1.92;1.30;;;32.00;31.50;;;;;;5064648;28;20552;-47
2022/06/17 10:37:00;;;;;;;2.15;1.45;;;32.00;31.60;;;;;;5067309;28;20286;-47
2022/06/17 10:39:31;;;;;;;1.60;1.50;;;32.00;31.40;;;;;;5065644;28;20598;-47
2022/06/17 10:41:58;;;;;;;1.67;1.38;;;31.90;31.50;;;;;;5063196;28;20289;-47
2022/06/17 10:44:28;;;;;;;1.45;1.08;;;31.60;31.70;;;;;;5044412;28;20302;-47
2022/06/17 10:47:15;;;;;;;5.63;1.65;;;31.40;32.20;;;;;;5064074;28;20208;-47
2022/06/17 10:49:55;;;;;;;1.50;1.40;;;31.20;32.50;;;;;;5067924;28;20231;-47
2022/06/17 10:52:32;;;;;;;1.27;1.20;;;30.90;33.00;;;;;;5063215;28;20202;-47
2022/06/17 10:55:01;;;;;;;6.72;1.88;;;30.70;32.80;;;;;;5065271;28;20615;-47
2022/06/17 10:57:30;;;;;;;3.20;1.60;;;30.50;33.40;;;;;;5051795;28;20290;-47
2022/06/17 10:59:58;;;;;;;2.80;1.63;;;30.30;33.70;;;;;;5066733;28;20231;-47
2022/06/17 11:02:29;;;;;;;1.98;1.45;;;30.10;33.80;;;;;;5067185;28;20207;-47
2022/06/17 11:04:56;;;;;;;1.40;1.30;;;29.90;33.30;;;;;;5054663;28;20218;-47
2022/06/17 11:07:30;;;;;;;1.88;1.52;;;29.70;33.60;;;;;;5053084;28;20267;-47
2022/06/17 11:10:02;;;;;;;1.37;1.27;;;29.50;34.00;;;;;;5070806;28;20294;-47
2022/06/17 11:12:38;;;;;;;2.50;1.67;;;29.20;34.80;;;;;;5071578;28;20203;-47
2022/06/17 11:15:44;;;;;;;2.43;1.37;;;29.10;35.20;;;;;;5066682;28;20686;-47
2022/06/17 11:18:24;;;;;;;2.57;1.63;;;28.80;35.50;;;;;;5015867;28;20671;-47
2022/06/17 11:21:02;;;;;;;2.60;1.53;;;28.70;35.00;;;;;;5052578;28;20227;-47
2022/06/17 11:23:35;;;;;;;2.63;1.30;;;28.60;34.90;;;;;;5070723;28;20285;-47
2022/06/17 11:26:16;;;;;;;3.80;1.20;;;28.50;34.90;;;;;;5067658;28;20207;-47
2022/06/17 11:28:55;;;;;;;2.40;1.50;;;28.50;35.00;;;;;;5065934;28;20222;-48
2022/06/17 11:31:25;;;;;;;2.27;1.50;;;28.50;35.30;;;;;;5065138;28;20226;-47
2022/06/17 11:33:52;;;;;;;2.23;1.50;;;28.50;34.80;;;;;;5067341;28;20206;-48
2022/06/17 11:36:34;;;;;;;5.73;2.20;;;28.50;34.60;;;;;;5052232;28;20223;-47
2022/06/17 11:39:34;;;;;;;1.53;1.43;;;28.50;34.50;;;;;;5067736;28;20301;-48
2022/06/17 11:42:12;;;;;;;1.70;1.60;;;28.50;34.70;;;;;;5043797;28;20198;-48
2022/06/17 11:44:58;;;;;;;1.63;1.53;;;28.50;35.10;;;;;;5058454;28;20209;-48
2022/06/17 11:47:29;;;;;;;3.07;1.07;;;28.50;34.80;;;;;;5044908;28;20256;-48
2022/06/17 11:50:00;;;;;;;1.97;1.57;;;28.40;34.70;;;;;;5060599;28;20724;-48
2022/06/17 11:52:34;;;;;;;2.10;1.50;;;28.30;34.70;;;;;;5057618;28;20257;-47
2022/06/17 11:55:03;;;;;;;1.47;1.37;;;28.20;34.50;;;;;;5060024;28;20213;-48
2022/06/17 11:57:33;;;;;;;1.47;1.37;;;28.20;35.10;;;;;;5056782;28;20230;-47
2022/06/17 12:00:04;;;;;;;2.33;1.37;;;28.10;34.70;;;;;;5057127;28;20238;-47
2022/06/17 12:02:31;;;;;;;2.43;1.10;;;28.10;34.30;;;;;;5056278;28;20655;-48
2022/06/17 12:05:23;;;;;;;2.40;1.20;;;28.10;34.10;;;;;;5039626;28;20230;-48
2022/06/17 12:08:01;;;;;;;1.93;0.93;;;28.00;34.00;;;;;;5041064;28;20302;-48
2022/06/17 12:10:55;;;;;;;1.90;1.30;;;28.00;34.40;;;;;;5059350;28;20210;-48
2022/06/17 12:13:33;;;;;;;2.53;1.10;;;28.00;34.60;;;;;;5048771;28;20453;-48
2022/06/17 12:16:16;;;;;;;1.50;1.20;;;28.10;35.00;;;;;;5060070;28;20766;-48
2022/06/17 12:18:46;;;;;;;1.60;1.20;;;28.10;35.00;;;;;;5058257;28;20214;-48
2022/06/17 12:21:41;;;;;;;1.60;1.30;;;28.10;34.40;;;;;;5061632;28;20204;-48
2022/06/17 12:24:38;;;;;;;1.57;1.00;;;28.10;34.40;;;;;;5057970;28;20742;-48
2022/06/17 12:27:26;;;;;;;1.40;1.30;;;28.10;34.30;;;;;;5059829;28;21039;-49
2022/06/17 12:30:21;;;;;;;1.20;0.90;;;28.10;34.60;;;;;;5060872;28;20211;-48
2022/06/17 12:32:55;;;;;;;2.07;1.43;;;28.20;34.80;;;;;;5060326;28;20234;-49
2022/06/17 12:35:37;;;;;;;1.60;1.10;;;28.20;34.00;;;;;;5046222;28;20580;-49
2022/06/17 12:38:36;;;;;;;4.60;1.33;;;28.20;33.60;;;;;;5059101;28;20646;-48
2022/06/17 12:41:20;;;;;;;1.40;1.30;;;28.20;33.80;;;;;;5012867;28;20245;-49
2022/06/17 12:44:03;;;;;;;1.60;1.30;;;28.30;34.20;;;;;;5046660;28;20211;-48
2022/06/17 12:46:37;;;;;;;2.40;1.20;;;28.30;34.80;;;;;;5045387;28;20209;-48
2022/06/17 12:55:18;;;;;;;1.63;1.30;;;28.30;33.90;;;;;;5064029;28;20290;-48
2022/06/17 12:58:06;;;;;;;2.27;1.10;;;28.40;33.80;;;;;;5064098;28;20803;-48
2022/06/17 13:00:40;;;;;;;0.80;0.80;;;28.40;33.80;;;;;;5055674;28;20798;-48
2022/06/17 13:03:13;;;;;;;1.30;1.20;;;28.50;34.10;;;;;;5055413;28;20210;-48
2022/06/17 13:05:45;;;;;;;1.63;1.50;;;28.40;34.00;;;;;;5060649;28;20246;-48
2022/06/17 13:08:35;;;;;;;0.70;0.70;;;28.50;34.20;;;;;;5058013;28;20237;-49
2022/06/17 13:11:06;;;;;;;2.63;1.03;;;28.50;32.60;;;;;;5062108;28;20202;-48
2022/06/17 13:14:12;;;;;;;2.13;1.20;;;28.50;33.10;;;;;;5049471;28;20207;-48
2022/06/17 13:17:00;;;;;;;2.43;1.53;;;28.50;33.90;;;;;;5044196;28;20305;-49
2022/06/17 13:19:38;;;;;;;1.30;1.20;;;28.50;34.00;;;;;;5057596;28;20272;-47
2022/06/17 13:22:17;;;;;;;3.60;1.20;;;28.50;33.90;;;;;;5055810;28;20210;-49
2022/06/17 13:25:03;;;;;;;1.53;0.80;;;28.60;33.90;;;;;;5058048;28;20297;-46
2022/06/17 13:27:45;;;;;;;1.63;1.30;;;28.70;33.70;;;;;;5040272;28;20206;-47
2022/06/17 13:30:18;;;;;;;2.13;1.10;;;28.80;33.40;;;;;;5059019;28;20258;-47
2022/06/17 13:32:50;;;;;;;0.70;0.70;;;28.80;33.70;;;;;;5044992;28;20615;-47
2022/06/17 13:35:35;;;;;;;0.73;0.73;;;28.90;34.30;;;;;;5048498;28;20223;-47
2022/06/17 13:38:18;;;;;;;1.97;1.30;;;29.00;33.40;;;;;;5054994;28;20257;-46
2022/06/17 13:41:15;;;;;;;2.35;0.88;;;28.90;33.10;;;;;;5058823;28;20290;-48
2022/06/17 13:43:52;;;;;;;1.77;1.00;;;29.00;32.60;;;;;;5053101;28;20301;-47